Island Venture — WDG3765 — position and weather

sailwx.info

Track history (hours):
 
Tides and Currents Weather Stations Pressure Air Temp Water Temp Dewpoint Dewpoint Depression Visibility Wind Speed Wind Dir Waves Ship Positions

Island Venture

Owner: Island Tug and Barge, Seattle, WA. More information available from US FCC via Universal Licensing System and Coast Guard Vessel Documentation Center.

Last reported at 2015-Sep-04 03:34 UTC. Time now 2015-Sep-04 03:48 UTC.
Position N 47°34' W 122°21'.

Type: Tug. MMSI: 367529420.

Date/timePositionNaut miles runAvg speedWind from/ knotsBaromVisibWave heightAir tempDewpointWater temp
2015-Sep-04 03:34N 47°34' W 122°21'0 0.0
2015-Sep-04 03:34N 47°34' W 122°21'0 0.0
2015-Sep-04 02:32N 47°34' W 122°21'0 0.1
2015-Sep-04 02:28N 47°34' W 122°21'0 0.0
2015-Sep-04 01:33N 47°34' W 122°21'0 0.0
2015-Sep-04 01:33N 47°34' W 122°21'0 0.0
2015-Sep-03 23:52N 47°34' W 122°21'0 0.0
2015-Sep-03 23:34N 47°34' W 122°21'0 0.2
2015-Sep-03 23:32N 47°34' W 122°21'0 0.0
2015-Sep-03 22:33N 47°34' W 122°21'0 0.0
2015-Sep-03 22:32N 47°34' W 122°21'0 0.0
2015-Sep-03 21:33N 47°34' W 122°21'0 0.0
2015-Sep-03 21:31N 47°34' W 122°21'0 0.0
2015-Sep-03 20:28N 47°34' W 122°21'0 0.2
2015-Sep-03 20:26N 47°34' W 122°21'0 0.0
2015-Sep-03 19:33N 47°34' W 122°21'0 0.0
2015-Sep-03 19:20N 47°34' W 122°21'0 0.0
2015-Sep-03 18:33N 47°34' W 122°21'0 0.0
2015-Sep-03 18:18N 47°34' W 122°21'0 0.5
2015-Sep-03 17:34N 47°34' W 122°21'0 1.6
2015-Sep-03 17:24N 47°34' W 122°21'1 1.4
2015-Sep-03 16:32N 47°33' W 122°20'0 0.0
2015-Sep-03 16:32N 47°33' W 122°20'3 2.7
2015-Sep-03 15:34N 47°35' W 122°22'0 0.0
2015-Sep-03 15:33N 47°35' W 122°22'3 2.7
2015-Sep-03 14:33N 47°33' W 122°20'0 0.5
2015-Sep-03 14:33N 47°33' W 122°20'1 1.2
2015-Sep-03 13:33N 47°34' W 122°21'0 0.0
2015-Sep-03 13:32N 47°34' W 122°21'2 2.2
2015-Sep-03 12:34N 47°36' W 122°22'0 2.5
2015-Sep-03 12:32N 47°36' W 122°22'1 0.8
2015-Sep-03 11:33N 47°36' W 122°23'0 3.5
2015-Sep-03 11:32N 47°36' W 122°24'3 3.3
2015-Sep-03 10:34N 47°33' W 122°26'0 3.6
2015-Sep-03 10:31N 47°33' W 122°26'5 5.2
2015-Sep-03 09:34N 47°29' W 122°30'0 5.0
2015-Sep-03 09:30N 47°29' W 122°30'4 4.5
2015-Sep-03 08:34N 47°25' W 122°32'0 5.0
2015-Sep-03 08:28N 47°24' W 122°32'7 7.9
2015-Sep-03 07:33N 47°17' W 122°32'1 0.0
2015-Sep-02 12:18N 47°16' W 122°33'6 8.2
2015-Sep-02 11:33N 47°23' W 122°32'6 6.3
2015-Sep-02 10:33N 47°29' W 122°31'7 6.6
2015-Sep-02 09:33N 47°35' W 122°26'1 7.0
2015-Sep-02 09:21N 47°36' W 122°25'2 2.2
2015-Sep-02 08:34N 47°35' W 122°22'0 3.0
2015-Sep-02 08:30N 47°35' W 122°22'8 8.8
2015-Sep-02 07:34N 47°43' W 122°27'0 9.0
2015-Sep-02 07:30N 47°43' W 122°27'910.0
2015-Sep-02 06:34N 47°53' W 122°29'1 8.9
2015-Sep-02 06:24N 47°54' W 122°30'8 8.6
2015-Sep-02 05:27N 48°01' W 122°36'3 8.1
2015-Sep-02 05:03N 48°04' W 122°37'6 9.0
2015-Sep-02 04:22N 48°09' W 122°42'17 9.1
2015-Sep-02 02:32N 48°26' W 122°44'7 7.4
2015-Sep-02 01:33N 48°31' W 122°37'0 0.4
2015-Sep-02 00:31N 48°32' W 122°36'0 0.1
2015-Sep-01 23:27N 48°32' W 122°36'2 1.9
2015-Sep-01 22:32N 48°31' W 122°39'4 4.3
2015-Sep-01 21:32N 48°29' W 122°44'27 6.7
2015-Sep-01 17:28N 48°02' W 122°37'510.5
2015-Sep-01 17:01N 47°58' W 122°33'4 9.0
2015-Sep-01 16:34N 47°55' W 122°29'5 8.6
2015-Sep-01 16:01N 47°50' W 122°27'4 8.5
2015-Sep-01 15:33N 47°47' W 122°26'0 7.6
2015-Sep-01 15:30N 47°46' W 122°26'7 8.0
2015-Sep-01 14:34N 47°39' W 122°27'0 7.0
2015-Sep-01 14:31N 47°38' W 122°26'4 4.3
2015-Sep-01 13:34N 47°35' W 122°22'0 0.5
2015-Sep-01 13:31N 47°35' W 122°22'6 6.3
2015-Sep-01 12:34N 47°41' W 122°26'0 1.2
2015-Sep-01 12:30N 47°41' W 122°26'5 4.8
2015-Sep-01 11:34N 47°46' W 122°25'0 6.0
2015-Sep-01 11:30N 47°46' W 122°25'6 6.3
2015-Sep-01 10:33N 47°51' W 122°29'0 6.1
2015-Sep-01 10:30N 47°52' W 122°29'6 6.7
2015-Sep-01 09:33N 47°57' W 122°34'6 6.3
2015-Sep-01 08:32N 48°03' W 122°39'5 4.8
2015-Sep-01 07:30N 48°07' W 122°42'4 3.5
2015-Sep-01 06:14N 48°10' W 122°46'2 3.0
2015-Sep-01 05:30N 48°12' W 122°48'14 6.4
2015-Sep-01 03:19N 48°26' W 122°45'10 5.4
2015-Sep-01 01:30N 48°35' W 122°40'4 4.0
2015-Sep-01 00:34N 48°38' W 122°36'6 5.6
2015-Aug-31 23:32N 48°43' W 122°33'2 2.5
2015-Aug-31 22:32N 48°45' W 122°30'0 0.4
2015-Aug-31 21:13N 48°44' W 122°30'2 2.4
2015-Aug-31 20:21N 48°43' W 122°32'4 5.4
2015-Aug-31 19:33N 48°39' W 122°34'6 5.4
2015-Aug-31 18:30N 48°34' W 122°39'4 4.0
2015-Aug-31 17:32N 48°31' W 122°42'5 4.5
2015-Aug-31 16:28N 48°26' W 122°44'21 6.9
2015-Aug-31 13:28N 48°06' W 122°39'6 7.0
2015-Aug-31 12:34N 47°60' W 122°36'0 6.8
2015-Aug-31 12:32N 47°60' W 122°35'4 6.6
2015-Aug-31 11:59N 47°57' W 122°32'3 6.8
2015-Aug-31 11:33N 47°55' W 122°29'8 7.9
2015-Aug-31 10:34N 47°47' W 122°26'0 7.8
2015-Aug-31 10:30N 47°47' W 122°26'7 7.9
2015-Aug-31 09:33N 47°39' W 122°27'0 7.4
2015-Aug-31 09:30N 47°39' W 122°27'5 5.4
2015-Aug-31 08:31N 47°35' W 122°22'0 4.2
2015-Aug-31 08:28N 47°35' W 122°22'1 0.6
2015-Aug-31 07:34N 47°35' W 122°22'0 0.8
2015-Aug-31 07:29N 47°35' W 122°22'1 1.0
2015-Aug-31 06:34N 47°34' W 122°21'0 0.1
2015-Aug-31 06:29N 47°34' W 122°21'0 0.0
2015-Aug-31 05:34N 47°34' W 122°21'0 0.0
2015-Aug-31 05:29N 47°34' W 122°21'0 0.0
2015-Aug-31 04:34N 47°34' W 122°21'0 0.1
2015-Aug-31 04:28N 47°34' W 122°21'0 0.0
2015-Aug-31 03:32N 47°34' W 122°21'0 0.0
2015-Aug-31 03:28N 47°34' W 122°21'0 0.0
2015-Aug-31 02:33N 47°34' W 122°21'0 0.0
2015-Aug-31 02:28N 47°34' W 122°21'0 0.0
2015-Aug-31 01:34N 47°34' W 122°21'0 0.0
2015-Aug-31 01:33N 47°34' W 122°21'0 0.0
2015-Aug-31 00:34N 47°34' W 122°21'0 0.2
2015-Aug-31 00:32N 47°34' W 122°21'0 0.0
2015-Aug-30 23:34N 47°34' W 122°21'0 0.0
2015-Aug-30 23:33N 47°34' W 122°21'0 0.0
2015-Aug-30 22:34N 47°34' W 122°21'0 0.0
2015-Aug-30 22:32N 47°34' W 122°21'0 0.0
2015-Aug-30 21:33N 47°34' W 122°21'0 0.0
2015-Aug-30 21:32N 47°34' W 122°21'0 0.0
2015-Aug-30 20:33N 47°34' W 122°21'0 0.0
2015-Aug-30 19:34N 47°34' W 122°21'0 0.2
2015-Aug-30 18:34N 47°34' W 122°21'1 1.4
2015-Aug-30 17:34N 47°33' W 122°20'2 1.6
2015-Aug-30 16:34N 47°34' W 122°21'0 0.0
2015-Aug-30 15:34N 47°34' W 122°21'0 0.0
2015-Aug-30 14:33N 47°34' W 122°21'0 0.0
2015-Aug-30 13:33N 47°34' W 122°21'0 0.0
2015-Aug-30 12:32N 47°34' W 122°21'0 0.0
2015-Aug-30 09:21N 47°34' W 122°21'0 0.0
2015-Aug-30 08:29N 47°34' W 122°21'0 0.0
2015-Aug-30 07:34N 47°34' W 122°21'0 0.0
2015-Aug-30 06:33N 47°34' W 122°21'0 0.0
2015-Aug-30 05:33N 47°34' W 122°21'0 0.0
2015-Aug-30 04:33N 47°34' W 122°21'0 0.0
2015-Aug-30 03:33N 47°34' W 122°21'0 0.0
2015-Aug-30 02:32N 47°34' W 122°21'0 0.0
2015-Aug-30 01:33N 47°34' W 122°21'0 0.0
2015-Aug-30 00:32N 47°34' W 122°21'2 2.5
2015-Aug-29 23:34N 47°35' W 122°25'9 8.8
2015-Aug-29 22:34N 47°28' W 122°31'9 8.7
2015-Aug-29 21:33N 47°19' W 122°33'4 4.4
2015-Aug-29 20:33N 47°15' W 122°34'7 0.7
2015-Aug-29 11:10N 47°09' W 122°38'0 0.0
2015-Aug-29 10:33N 47°09' W 122°38'0 0.0
2015-Aug-29 09:33N 47°09' W 122°38'0 0.0
2015-Aug-29 08:32N 47°09' W 122°38'8 2.8
2015-Aug-29 05:33N 47°16' W 122°33'3 3.3
2015-Aug-29 04:33N 47°19' W 122°34'4 4.4
2015-Aug-29 03:33N 47°23' W 122°32'6 6.4
2015-Aug-29 02:34N 47°30' W 122°30'7 7.2
2015-Aug-29 01:33N 47°36' W 122°24'2 2.1
2015-Aug-29 00:32N 47°34' W 122°21'0 0.0
2015-Aug-28 23:30N 47°34' W 122°21'0 0.0
2015-Aug-28 22:34N 47°34' W 122°21'1 0.7
2015-Aug-28 21:33N 47°34' W 122°21'1 1.1
2015-Aug-28 20:34N 47°35' W 122°22'0 0.4
2015-Aug-28 19:33N 47°34' W 122°21'0 0.0
2015-Aug-28 18:33N 47°34' W 122°21'1 0.7
2015-Aug-28 17:29N 47°34' W 122°21'0 0.0
2015-Aug-28 16:33N 47°34' W 122°21'0 0.0
2015-Aug-28 15:33N 47°34' W 122°21'0 0.0
2015-Aug-28 14:33N 47°34' W 122°21'0 0.0
2015-Aug-28 10:31N 47°34' W 122°21'1 0.8
2015-Aug-28 09:33N 47°34' W 122°21'0 0.0
2015-Aug-28 08:34N 47°34' W 122°21'2 1.7
2015-Aug-28 07:30N 47°33' W 122°20'4 3.8
2015-Aug-28 06:34N 47°36' W 122°23'7 6.7
2015-Aug-28 05:33N 47°31' W 122°29'8 7.6
2015-Aug-28 04:34N 47°23' W 122°32'8 8.1
2015-Aug-28 03:34N 47°15' W 122°34'15 0.8
2015-Aug-27 09:03N 47°12' W 122°56'3 4.1
2015-Aug-27 08:18N 47°10' W 122°53'12 6.8
2015-Aug-27 06:29N 47°13' W 122°36'8 8.4
2015-Aug-27 05:34N 47°21' W 122°33'8 7.9
2015-Aug-27 04:33N 47°29' W 122°31'8 7.9
2015-Aug-27 03:32N 47°35' W 122°25'2 2.3
2015-Aug-27 02:33N 47°34' W 122°22'1 0.9
2015-Aug-27 01:34N 47°35' W 122°22'1 1.0
2015-Aug-27 00:33N 47°34' W 122°21'0 0.0
2015-Aug-26 23:34N 47°34' W 122°21'0 0.0
2015-Aug-26 22:34N 47°34' W 122°21'0 0.0
2015-Aug-26 21:33N 47°34' W 122°21'0 0.0
2015-Aug-26 20:34N 47°34' W 122°21'0 0.0
2015-Aug-26 19:33N 47°34' W 122°21'0 0.0
2015-Aug-26 18:32N 47°34' W 122°21'0 0.0
2015-Aug-26 17:33N 47°34' W 122°21'0 0.0
2015-Aug-26 16:33N 47°34' W 122°21'0 0.0
2015-Aug-26 15:33N 47°34' W 122°21'0 0.1
2015-Aug-26 14:33N 47°34' W 122°21'0 0.1
2015-Aug-26 13:33N 47°34' W 122°22'0 0.0
2015-Aug-26 12:33N 47°34' W 122°22'0 0.0
2015-Aug-26 11:34N 47°34' W 122°22'0 0.0
2015-Aug-26 10:34N 47°34' W 122°22'0 0.0
2015-Aug-26 09:31N 47°34' W 122°22'0 0.0
2015-Aug-26 08:20N 47°34' W 122°22'0 0.0
2015-Aug-26 07:32N 47°34' W 122°22'1 0.8
2015-Aug-26 06:34N 47°35' W 122°22'2 2.3
2015-Aug-26 05:34N 47°35' W 122°25'7 6.5
2015-Aug-26 04:34N 47°30' W 122°30'7 6.7
2015-Aug-26 03:34N 47°23' W 122°32'7 7.0
2015-Aug-26 02:34N 47°16' W 122°33'5 0.2
2015-Aug-25 05:14N 47°12' W 122°38'5 8.1
2015-Aug-25 04:34N 47°16' W 122°33'  
Track history (hours):
 
Tides and Currents Weather Stations Pressure Air Temp Water Temp Dewpoint Dewpoint Depression Visibility Wind Speed Wind Dir Waves Ship Positions

Island Venture

Owner: Island Tug and Barge, Seattle, WA. More information available from US FCC via Universal Licensing System and Coast Guard Vessel Documentation Center.

Last reported at 2015-Sep-04 03:34 UTC. Time now 2015-Sep-04 03:48 UTC.
Position N 47°34' W 122°21'.

Type: Tug. MMSI: 367529420.

Date/timePositionNaut miles runAvg speedWind from/ knotsBaromVisibWave heightAir tempDewpointWater temp
2015-Sep-04 03:34N 47°34' W 122°21'0 0.0
2015-Sep-04 03:34N 47°34' W 122°21'0 0.0
2015-Sep-04 02:32N 47°34' W 122°21'0 0.1
2015-Sep-04 02:28N 47°34' W 122°21'0 0.0
2015-Sep-04 01:33N 47°34' W 122°21'0 0.0
2015-Sep-04 01:33N 47°34' W 122°21'0 0.0
2015-Sep-03 23:52N 47°34' W 122°21'0 0.0
2015-Sep-03 23:34N 47°34' W 122°21'0 0.2
2015-Sep-03 23:32N 47°34' W 122°21'0 0.0
2015-Sep-03 22:33N 47°34' W 122°21'0 0.0
2015-Sep-03 22:32N 47°34' W 122°21'0 0.0
2015-Sep-03 21:33N 47°34' W 122°21'0 0.0
2015-Sep-03 21:31N 47°34' W 122°21'0 0.0
2015-Sep-03 20:28N 47°34' W 122°21'0 0.2
2015-Sep-03 20:26N 47°34' W 122°21'0 0.0
2015-Sep-03 19:33N 47°34' W 122°21'0 0.0
2015-Sep-03 19:20N 47°34' W 122°21'0 0.0
2015-Sep-03 18:33N 47°34' W 122°21'0 0.0
2015-Sep-03 18:18N 47°34' W 122°21'0 0.5
2015-Sep-03 17:34N 47°34' W 122°21'0 1.6
2015-Sep-03 17:24N 47°34' W 122°21'1 1.4
2015-Sep-03 16:32N 47°33' W 122°20'0 0.0
2015-Sep-03 16:32N 47°33' W 122°20'3 2.7
2015-Sep-03 15:34N 47°35' W 122°22'0 0.0
2015-Sep-03 15:33N 47°35' W 122°22'3 2.7
2015-Sep-03 14:33N 47°33' W 122°20'0 0.5
2015-Sep-03 14:33N 47°33' W 122°20'1 1.2
2015-Sep-03 13:33N 47°34' W 122°21'0 0.0
2015-Sep-03 13:32N 47°34' W 122°21'2 2.2
2015-Sep-03 12:34N 47°36' W 122°22'0 2.5
2015-Sep-03 12:32N 47°36' W 122°22'1 0.8
2015-Sep-03 11:33N 47°36' W 122°23'0 3.5
2015-Sep-03 11:32N 47°36' W 122°24'3 3.3
2015-Sep-03 10:34N 47°33' W 122°26'0 3.6
2015-Sep-03 10:31N 47°33' W 122°26'5 5.2
2015-Sep-03 09:34N 47°29' W 122°30'0 5.0
2015-Sep-03 09:30N 47°29' W 122°30'4 4.5
2015-Sep-03 08:34N 47°25' W 122°32'0 5.0
2015-Sep-03 08:28N 47°24' W 122°32'7 7.9
2015-Sep-03 07:33N 47°17' W 122°32'1 0.0
2015-Sep-02 12:18N 47°16' W 122°33'6 8.2
2015-Sep-02 11:33N 47°23' W 122°32'6 6.3
2015-Sep-02 10:33N 47°29' W 122°31'7 6.6
2015-Sep-02 09:33N 47°35' W 122°26'1 7.0
2015-Sep-02 09:21N 47°36' W 122°25'2 2.2
2015-Sep-02 08:34N 47°35' W 122°22'0 3.0
2015-Sep-02 08:30N 47°35' W 122°22'8 8.8
2015-Sep-02 07:34N 47°43' W 122°27'0 9.0
2015-Sep-02 07:30N 47°43' W 122°27'910.0
2015-Sep-02 06:34N 47°53' W 122°29'1 8.9
2015-Sep-02 06:24N 47°54' W 122°30'8 8.6
2015-Sep-02 05:27N 48°01' W 122°36'3 8.1
2015-Sep-02 05:03N 48°04' W 122°37'6 9.0
2015-Sep-02 04:22N 48°09' W 122°42'17 9.1
2015-Sep-02 02:32N 48°26' W 122°44'7 7.4
2015-Sep-02 01:33N 48°31' W 122°37'0 0.4
2015-Sep-02 00:31N 48°32' W 122°36'0 0.1
2015-Sep-01 23:27N 48°32' W 122°36'2 1.9
2015-Sep-01 22:32N 48°31' W 122°39'4 4.3
2015-Sep-01 21:32N 48°29' W 122°44'27 6.7
2015-Sep-01 17:28N 48°02' W 122°37'510.5
2015-Sep-01 17:01N 47°58' W 122°33'4 9.0
2015-Sep-01 16:34N 47°55' W 122°29'5 8.6
2015-Sep-01 16:01N 47°50' W 122°27'4 8.5
2015-Sep-01 15:33N 47°47' W 122°26'0 7.6
2015-Sep-01 15:30N 47°46' W 122°26'7 8.0
2015-Sep-01 14:34N 47°39' W 122°27'0 7.0
2015-Sep-01 14:31N 47°38' W 122°26'4 4.3
2015-Sep-01 13:34N 47°35' W 122°22'0 0.5
2015-Sep-01 13:31N 47°35' W 122°22'6 6.3
2015-Sep-01 12:34N 47°41' W 122°26'0 1.2
2015-Sep-01 12:30N 47°41' W 122°26'5 4.8
2015-Sep-01 11:34N 47°46' W 122°25'0 6.0
2015-Sep-01 11:30N 47°46' W 122°25'6 6.3
2015-Sep-01 10:33N 47°51' W 122°29'0 6.1
2015-Sep-01 10:30N 47°52' W 122°29'6 6.7
2015-Sep-01 09:33N 47°57' W 122°34'6 6.3
2015-Sep-01 08:32N 48°03' W 122°39'5 4.8
2015-Sep-01 07:30N 48°07' W 122°42'4 3.5
2015-Sep-01 06:14N 48°10' W 122°46'2 3.0
2015-Sep-01 05:30N 48°12' W 122°48'14 6.4
2015-Sep-01 03:19N 48°26' W 122°45'10 5.4
2015-Sep-01 01:30N 48°35' W 122°40'4 4.0
2015-Sep-01 00:34N 48°38' W 122°36'6 5.6
2015-Aug-31 23:32N 48°43' W 122°33'2 2.5
2015-Aug-31 22:32N 48°45' W 122°30'0 0.4
2015-Aug-31 21:13N 48°44' W 122°30'2 2.4
2015-Aug-31 20:21N 48°43' W 122°32'4 5.4
2015-Aug-31 19:33N 48°39' W 122°34'6 5.4
2015-Aug-31 18:30N 48°34' W 122°39'4 4.0
2015-Aug-31 17:32N 48°31' W 122°42'5 4.5
2015-Aug-31 16:28N 48°26' W 122°44'21 6.9
2015-Aug-31 13:28N 48°06' W 122°39'6 7.0
2015-Aug-31 12:34N 47°60' W 122°36'0 6.8
2015-Aug-31 12:32N 47°60' W 122°35'4 6.6
2015-Aug-31 11:59N 47°57' W 122°32'3 6.8
2015-Aug-31 11:33N 47°55' W 122°29'8 7.9
2015-Aug-31 10:34N 47°47' W 122°26'0 7.8
2015-Aug-31 10:30N 47°47' W 122°26'7 7.9
2015-Aug-31 09:33N 47°39' W 122°27'0 7.4
2015-Aug-31 09:30N 47°39' W 122°27'5 5.4
2015-Aug-31 08:31N 47°35' W 122°22'0 4.2
2015-Aug-31 08:28N 47°35' W 122°22'1 0.6
2015-Aug-31 07:34N 47°35' W 122°22'0 0.8
2015-Aug-31 07:29N 47°35' W 122°22'1 1.0
2015-Aug-31 06:34N 47°34' W 122°21'0 0.1
2015-Aug-31 06:29N 47°34' W 122°21'0 0.0
2015-Aug-31 05:34N 47°34' W 122°21'0 0.0
2015-Aug-31 05:29N 47°34' W 122°21'0 0.0
2015-Aug-31 04:34N 47°34' W 122°21'0 0.1
2015-Aug-31 04:28N 47°34' W 122°21'0 0.0
2015-Aug-31 03:32N 47°34' W 122°21'0 0.0
2015-Aug-31 03:28N 47°34' W 122°21'0 0.0
2015-Aug-31 02:33N 47°34' W 122°21'0 0.0
2015-Aug-31 02:28N 47°34' W 122°21'0 0.0
2015-Aug-31 01:34N 47°34' W 122°21'0 0.0
2015-Aug-31 01:33N 47°34' W 122°21'0 0.0
2015-Aug-31 00:34N 47°34' W 122°21'0 0.2
2015-Aug-31 00:32N 47°34' W 122°21'0 0.0
2015-Aug-30 23:34N 47°34' W 122°21'0 0.0
2015-Aug-30 23:33N 47°34' W 122°21'0 0.0
2015-Aug-30 22:34N 47°34' W 122°21'0 0.0
2015-Aug-30 22:32N 47°34' W 122°21'0 0.0
2015-Aug-30 21:33N 47°34' W 122°21'0 0.0
2015-Aug-30 21:32N 47°34' W 122°21'0 0.0
2015-Aug-30 20:33N 47°34' W 122°21'0 0.0
2015-Aug-30 19:34N 47°34' W 122°21'0 0.2
2015-Aug-30 18:34N 47°34' W 122°21'1 1.4
2015-Aug-30 17:34N 47°33' W 122°20'2 1.6
2015-Aug-30 16:34N 47°34' W 122°21'0 0.0
2015-Aug-30 15:34N 47°34' W 122°21'0 0.0
2015-Aug-30 14:33N 47°34' W 122°21'0 0.0
2015-Aug-30 13:33N 47°34' W 122°21'0 0.0
2015-Aug-30 12:32N 47°34' W 122°21'0 0.0
2015-Aug-30 09:21N 47°34' W 122°21'0 0.0
2015-Aug-30 08:29N 47°34' W 122°21'0 0.0
2015-Aug-30 07:34N 47°34' W 122°21'0 0.0
2015-Aug-30 06:33N 47°34' W 122°21'0 0.0
2015-Aug-30 05:33N 47°34' W 122°21'0 0.0
2015-Aug-30 04:33N 47°34' W 122°21'0 0.0
2015-Aug-30 03:33N 47°34' W 122°21'0 0.0
2015-Aug-30 02:32N 47°34' W 122°21'0 0.0
2015-Aug-30 01:33N 47°34' W 122°21'0 0.0
2015-Aug-30 00:32N 47°34' W 122°21'2 2.5
2015-Aug-29 23:34N 47°35' W 122°25'9 8.8
2015-Aug-29 22:34N 47°28' W 122°31'9 8.7
2015-Aug-29 21:33N 47°19' W 122°33'4 4.4
2015-Aug-29 20:33N 47°15' W 122°34'7 0.7
2015-Aug-29 11:10N 47°09' W 122°38'0 0.0
2015-Aug-29 10:33N 47°09' W 122°38'0 0.0
2015-Aug-29 09:33N 47°09' W 122°38'0 0.0
2015-Aug-29 08:32N 47°09' W 122°38'8 2.8
2015-Aug-29 05:33N 47°16' W 122°33'3 3.3
2015-Aug-29 04:33N 47°19' W 122°34'4 4.4
2015-Aug-29 03:33N 47°23' W 122°32'6 6.4
2015-Aug-29 02:34N 47°30' W 122°30'7 7.2
2015-Aug-29 01:33N 47°36' W 122°24'2 2.1
2015-Aug-29 00:32N 47°34' W 122°21'0 0.0
2015-Aug-28 23:30N 47°34' W 122°21'0 0.0
2015-Aug-28 22:34N 47°34' W 122°21'1 0.7
2015-Aug-28 21:33N 47°34' W 122°21'1 1.1
2015-Aug-28 20:34N 47°35' W 122°22'0 0.4
2015-Aug-28 19:33N 47°34' W 122°21'0 0.0
2015-Aug-28 18:33N 47°34' W 122°21'1 0.7
2015-Aug-28 17:29N 47°34' W 122°21'0 0.0
2015-Aug-28 16:33N 47°34' W 122°21'0 0.0
2015-Aug-28 15:33N 47°34' W 122°21'0 0.0
2015-Aug-28 14:33N 47°34' W 122°21'0 0.0
2015-Aug-28 10:31N 47°34' W 122°21'1 0.8
2015-Aug-28 09:33N 47°34' W 122°21'0 0.0
2015-Aug-28 08:34N 47°34' W 122°21'2 1.7
2015-Aug-28 07:30N 47°33' W 122°20'4 3.8
2015-Aug-28 06:34N 47°36' W 122°23'7 6.7
2015-Aug-28 05:33N 47°31' W 122°29'8 7.6
2015-Aug-28 04:34N 47°23' W 122°32'8 8.1
2015-Aug-28 03:34N 47°15' W 122°34'15 0.8
2015-Aug-27 09:03N 47°12' W 122°56'3 4.1
2015-Aug-27 08:18N 47°10' W 122°53'12 6.8
2015-Aug-27 06:29N 47°13' W 122°36'8 8.4
2015-Aug-27 05:34N 47°21' W 122°33'8 7.9
2015-Aug-27 04:33N 47°29' W 122°31'8 7.9
2015-Aug-27 03:32N 47°35' W 122°25'2 2.3
2015-Aug-27 02:33N 47°34' W 122°22'1 0.9
2015-Aug-27 01:34N 47°35' W 122°22'1 1.0
2015-Aug-27 00:33N 47°34' W 122°21'0 0.0
2015-Aug-26 23:34N 47°34' W 122°21'0 0.0
2015-Aug-26 22:34N 47°34' W 122°21'0 0.0
2015-Aug-26 21:33N 47°34' W 122°21'0 0.0
2015-Aug-26 20:34N 47°34' W 122°21'0 0.0
2015-Aug-26 19:33N 47°34' W 122°21'0 0.0
2015-Aug-26 18:32N 47°34' W 122°21'0 0.0
2015-Aug-26 17:33N 47°34' W 122°21'0 0.0
2015-Aug-26 16:33N 47°34' W 122°21'0 0.0
2015-Aug-26 15:33N 47°34' W 122°21'0 0.1
2015-Aug-26 14:33N 47°34' W 122°21'0 0.1
2015-Aug-26 13:33N 47°34' W 122°22'0 0.0
2015-Aug-26 12:33N 47°34' W 122°22'0 0.0
2015-Aug-26 11:34N 47°34' W 122°22'0 0.0
2015-Aug-26 10:34N 47°34' W 122°22'0 0.0
2015-Aug-26 09:31N 47°34' W 122°22'0 0.0
2015-Aug-26 08:20N 47°34' W 122°22'0 0.0
2015-Aug-26 07:32N 47°34' W 122°22'1 0.8
2015-Aug-26 06:34N 47°35' W 122°22'2 2.3
2015-Aug-26 05:34N 47°35' W 122°25'7 6.5
2015-Aug-26 04:34N 47°30' W 122°30'7 6.7
2015-Aug-26 03:34N 47°23' W 122°32'7 7.0
2015-Aug-26 02:34N 47°16' W 122°33'5 0.2
2015-Aug-25 05:14N 47°12' W 122°38'5 8.1
2015-Aug-25 04:34N 47°16' W 122°33'  

Dump ship's entire track history